sensor_id;sensor_type;location;lat;lon;timestamp;pressure;altitude;pressure_sealevel;temperature;humidity
74895;BME280;63447;49.446;8.666;2024-01-11T00:01:02;101478.34;;;-3.48;77.72
74895;BME280;63447;49.446;8.666;2024-01-11T00:03:27;101484.97;;;-3.44;76.88
74895;BME280;63447;49.446;8.666;2024-01-11T00:05:53;101489.59;;;-3.64;77.13
74895;BME280;63447;49.446;8.666;2024-01-11T00:08:18;101478.97;;;-3.59;78.25
74895;BME280;63447;49.446;8.666;2024-01-11T00:10:46;101482.97;;;-3.74;78.53
74895;BME280;63447;49.446;8.666;2024-01-11T00:13:11;101485.44;;;-3.66;78.51
74895;BME280;63447;49.446;8.666;2024-01-11T00:15:36;101481.31;;;-3.69;78.11
74895;BME280;63447;49.446;8.666;2024-01-11T00:18:02;101483.78;;;-3.67;77.19
74895;BME280;63447;49.446;8.666;2024-01-11T00:20:27;101472.41;;;-3.83;78.21
74895;BME280;63447;49.446;8.666;2024-01-11T00:22:55;101467.25;;;-3.91;80.00
74895;BME280;63447;49.446;8.666;2024-01-11T00:25:20;101475.28;;;-3.78;79.31
74895;BME280;63447;49.446;8.666;2024-01-11T00:27:46;101462.03;;;-3.86;79.44
74895;BME280;63447;49.446;8.666;2024-01-11T00:30:11;101474.31;;;-3.90;77.54
74895;BME280;63447;49.446;8.666;2024-01-11T00:32:37;101464.56;;;-4.04;79.32
74895;BME280;63447;49.446;8.666;2024-01-11T00:35:02;101478.41;;;-3.87;80.06
74895;BME280;63447;49.446;8.666;2024-01-11T00:37:28;101486.09;;;-3.84;79.11
74895;BME280;63447;49.446;8.666;2024-01-11T00:39:53;101485.88;;;-3.76;79.35
74895;BME280;63447;49.446;8.666;2024-01-11T00:42:18;101478.41;;;-3.67;78.30
74895;BME280;63447;49.446;8.666;2024-01-11T00:44:44;101486.66;;;-3.62;78.58
74895;BME280;63447;49.446;8.666;2024-01-11T00:47:12;101478.97;;;-3.59;78.95
74895;BME280;63447;49.446;8.666;2024-01-11T00:49:40;101478.34;;;-3.54;78.61
74895;BME280;63447;49.446;8.666;2024-01-11T00:52:05;101482.50;;;-3.58;78.40
74895;BME280;63447;49.446;8.666;2024-01-11T00:54:31;101486.44;;;-3.54;78.19
74895;BME280;63447;49.446;8.666;2024-01-11T00:56:59;101468.22;;;-3.65;78.03
74895;BME280;63447;49.446;8.666;2024-01-11T00:59:24;101499.50;;;-3.45;77.33
74895;BME280;63447;49.446;8.666;2024-01-11T01:01:50;101480.84;;;-3.59;76.84
74895;BME280;63447;49.446;8.666;2024-01-11T01:04:15;101495.19;;;-3.65;77.35
74895;BME280;63447;49.446;8.666;2024-01-11T01:06:41;101497.44;;;-3.62;78.91
74895;BME280;63447;49.446;8.666;2024-01-11T01:09:09;101510.75;;;-3.67;78.57
74895;BME280;63447;49.446;8.666;2024-01-11T01:11:35;101500.81;;;-3.73;78.96
74895;BME280;63447;49.446;8.666;2024-01-11T01:14:00;101507.41;;;-3.63;78.36
74895;BME280;63447;49.446;8.666;2024-01-11T01:16:25;101504.50;;;-3.61;78.66
74895;BME280;63447;49.446;8.666;2024-01-11T01:18:51;101504.94;;;-3.64;78.79
74895;BME280;63447;49.446;8.666;2024-01-11T01:21:18;101496.41;;;-3.61;78.11
74895;BME280;63447;49.446;8.666;2024-01-11T01:23:44;101499.75;;;-3.66;78.47
74895;BME280;63447;49.446;8.666;2024-01-11T01:26:09;101492.13;;;-4.02;79.21
74895;BME280;63447;49.446;8.666;2024-01-11T01:28:34;101492.75;;;-3.93;80.88
74895;BME280;63447;49.446;8.666;2024-01-11T01:31:01;101493.38;;;-3.91;80.53
74895;BME280;63447;49.446;8.666;2024-01-11T01:33:26;101493.75;;;-3.88;79.93
74895;BME280;63447;49.446;8.666;2024-01-11T01:35:57;101499.41;;;-3.96;78.09
74895;BME280;63447;49.446;8.666;2024-01-11T01:38:23;101500.63;;;-3.98;81.15
74895;BME280;63447;49.446;8.666;2024-01-11T01:40:48;101482.38;;;-4.10;80.66
74895;BME280;63447;49.446;8.666;2024-01-11T01:43:13;101499.38;;;-4.09;80.81
74895;BME280;63447;49.446;8.666;2024-01-11T01:45:41;101496.69;;;-4.02;81.49
74895;BME280;63447;49.446;8.666;2024-01-11T01:48:07;101504.16;;;-3.98;81.30
74895;BME280;63447;49.446;8.666;2024-01-11T01:50:32;101478.25;;;-4.12;81.25
74895;BME280;63447;49.446;8.666;2024-01-11T01:53:00;101511.38;;;-3.85;81.07
74895;BME280;63447;49.446;8.666;2024-01-11T01:55:27;101499.59;;;-3.91;80.28
74895;BME280;63447;49.446;8.666;2024-01-11T01:57:54;101513.03;;;-3.78;80.04
74895;BME280;63447;49.446;8.666;2024-01-11T02:00:20;101523.63;;;-3.76;79.87
74895;BME280;63447;49.446;8.666;2024-01-11T02:02:50;101523.63;;;-3.83;79.55
74895;BME280;63447;49.446;8.666;2024-01-11T02:05:16;101501.03;;;-4.01;78.89
74895;BME280;63447;49.446;8.666;2024-01-11T02:07:42;101513.91;;;-4.03;81.74
74895;BME280;63447;49.446;8.666;2024-01-11T02:10:09;101512.44;;;-4.13;81.02
74895;BME280;63447;49.446;8.666;2024-01-11T02:12:37;101495.44;;;-4.39;83.28
74895;BME280;63447;49.446;8.666;2024-01-11T02:15:05;101524.06;;;-4.19;83.06
74895;BME280;63447;49.446;8.666;2024-01-11T02:17:31;101514.75;;;-4.16;82.86
74895;BME280;63447;49.446;8.666;2024-01-11T02:19:57;101518.25;;;-4.16;81.81
74895;BME280;63447;49.446;8.666;2024-01-11T02:22:29;101515.34;;;-4.14;82.85
74895;BME280;63447;49.446;8.666;2024-01-11T02:24:55;101510.56;;;-4.12;80.79
74895;BME280;63447;49.446;8.666;2024-01-11T02:27:22;101519.91;;;-4.08;82.23
74895;BME280;63447;49.446;8.666;2024-01-11T02:29:50;101506.22;;;-4.13;81.55
74895;BME280;63447;49.446;8.666;2024-01-11T02:32:18;101494.84;;;-4.22;81.87
74895;BME280;63447;49.446;8.666;2024-01-11T02:34:46;101526.13;;;-4.01;82.54
74895;BME280;63447;49.446;8.666;2024-01-11T02:37:12;101515.34;;;-4.01;81.99
74895;BME280;63447;49.446;8.666;2024-01-11T02:39:38;101526.13;;;-4.01;81.93
74895;BME280;63447;49.446;8.666;2024-01-11T02:42:06;101531.31;;;-3.99;82.06
74895;BME280;63447;49.446;8.666;2024-01-11T02:44:32;101528.22;;;-3.96;81.95
74895;BME280;63447;49.446;8.666;2024-01-11T02:46:58;101519.28;;;-3.97;81.75
74895;BME280;63447;49.446;8.666;2024-01-11T02:49:23;101494.22;;;-4.04;81.29
74895;BME280;63447;49.446;8.666;2024-01-11T02:51:48;101528.81;;;-3.88;81.39
74895;BME280;63447;49.446;8.666;2024-01-11T02:54:14;101517.00;;;-3.87;81.74
74895;BME280;63447;49.446;8.666;2024-01-11T02:56:39;101510.38;;;-3.91;80.73
74895;BME280;63447;49.446;8.666;2024-01-11T02:59:06;101522.19;;;-3.98;81.41
74895;BME280;63447;49.446;8.666;2024-01-11T03:01:32;101514.72;;;-4.03;81.87
74895;BME280;63447;49.446;8.666;2024-01-11T03:04:00;101519.72;;;-4.00;80.88
74895;BME280;63447;49.446;8.666;2024-01-11T03:06:25;101520.72;;;-4.14;81.09
74895;BME280;63447;49.446;8.666;2024-01-11T03:08:51;101498.34;;;-4.28;82.06
74895;BME280;63447;49.446;8.666;2024-01-11T03:11:19;101517.44;;;-4.16;82.63
74895;BME280;63447;49.446;8.666;2024-01-11T03:13:44;101494.84;;;-4.28;83.15
74895;BME280;63447;49.446;8.666;2024-01-11T03:16:09;101521.78;;;-4.08;82.95
74895;BME280;63447;49.446;8.666;2024-01-11T03:18:37;101508.53;;;-4.17;82.79
74895;BME280;63447;49.446;8.666;2024-01-11T03:21:03;101506.22;;;-4.13;82.96
74895;BME280;63447;49.446;8.666;2024-01-11T03:23:28;101483.84;;;-4.20;82.59
74895;BME280;63447;49.446;8.666;2024-01-11T03:25:54;101499.19;;;-4.21;82.53
74895;BME280;63447;49.446;8.666;2024-01-11T03:28:22;101501.03;;;-4.15;83.44
74895;BME280;63447;49.446;8.666;2024-01-11T03:30:47;101500.41;;;-4.10;82.69
74895;BME280;63447;49.446;8.666;2024-01-11T03:33:15;101489.44;;;-4.15;82.66
74895;BME280;63447;49.446;8.666;2024-01-11T03:35:40;101500.84;;;-4.13;81.88
74895;BME280;63447;49.446;8.666;2024-01-11T03:38:11;101502.91;;;-4.15;81.66
74895;BME280;63447;49.446;8.666;2024-01-11T03:40:38;101478.66;;;-4.35;83.24
74895;BME280;63447;49.446;8.666;2024-01-11T03:43:06;101491.13;;;-4.21;83.35
74895;BME280;63447;49.446;8.666;2024-01-11T03:45:34;101498.78;;;-4.18;82.24
74895;BME280;63447;49.446;8.666;2024-01-11T03:47:59;101472.84;;;-4.38;82.64
74895;BME280;63447;49.446;8.666;2024-01-11T03:50:24;101499.38;;;-4.16;81.69
74895;BME280;63447;49.446;8.666;2024-01-11T03:52:50;101485.09;;;-4.23;82.20
74895;BME280;63447;49.446;8.666;2024-01-11T03:55:15;101499.19;;;-4.21;81.85
74895;BME280;63447;49.446;8.666;2024-01-11T03:57:40;101474.94;;;-4.27;82.24
74895;BME280;63447;49.446;8.666;2024-01-11T04:00:09;101462.28;;;-4.33;81.46
74895;BME280;63447;49.446;8.666;2024-01-11T04:02:35;101495.25;;;-4.18;81.59
74895;BME280;63447;49.446;8.666;2024-01-11T04:05:19;101494.63;;;-4.20;82.51
74895;BME280;63447;49.446;8.666;2024-01-11T04:07:49;101502.69;;;-4.14;82.81
74895;BME280;63447;49.446;8.666;2024-01-11T04:10:15;101501.88;;;-4.27;83.65
74895;BME280;63447;49.446;8.666;2024-01-11T04:12:42;101486.94;;;-4.36;82.75
74895;BME280;63447;49.446;8.666;2024-01-11T04:15:07;101489.22;;;-4.33;82.95
74895;BME280;63447;49.446;8.666;2024-01-11T04:17:33;101482.16;;;-4.41;82.51
74895;BME280;63447;49.446;8.666;2024-01-11T04:19:59;101506.00;;;-4.31;82.52
74895;BME280;63447;49.446;8.666;2024-01-11T04:22:24;101503.31;;;-4.31;84.05
74895;BME280;63447;49.446;8.666;2024-01-11T04:24:52;101486.31;;;-4.38;83.34
74895;BME280;63447;49.446;8.666;2024-01-11T04:27:20;101505.59;;;-4.28;84.27
74895;BME280;63447;49.446;8.666;2024-01-11T04:29:45;101480.53;;;-4.42;83.92
74895;BME280;63447;49.446;8.666;2024-01-11T04:32:10;101498.56;;;-4.29;84.02
74895;BME280;63447;49.446;8.666;2024-01-11T04:34:36;101509.34;;;-4.16;83.36
74895;BME280;63447;49.446;8.666;2024-01-11T04:37:04;101502.91;;;-4.15;83.25
74895;BME280;63447;49.446;8.666;2024-01-11T04:39:29;101510.78;;;-4.27;82.10
74895;BME280;63447;49.446;8.666;2024-01-11T04:41:59;101514.09;;;-4.31;83.21
74895;BME280;63447;49.446;8.666;2024-01-11T04:44:25;101527.59;;;-4.18;83.71
74895;BME280;63447;49.446;8.666;2024-01-11T04:46:53;101521.59;;;-4.20;83.77
74895;BME280;63447;49.446;8.666;2024-01-11T04:49:18;101524.06;;;-4.12;83.68
74895;BME280;63447;49.446;8.666;2024-01-11T04:51:43;101514.09;;;-4.12;83.32
74895;BME280;63447;49.446;8.666;2024-01-11T04:54:09;101523.00;;;-4.11;82.54
74895;BME280;63447;49.446;8.666;2024-01-11T04:56:36;101527.16;;;-4.15;82.25
74895;BME280;63447;49.446;8.666;2024-01-11T04:59:01;101516.38;;;-4.28;82.70
74895;BME280;63447;49.446;8.666;2024-01-11T05:01:27;101520.13;;;-4.23;82.62
74895;BME280;63447;49.446;8.666;2024-01-11T05:03:52;101525.09;;;-4.26;82.21
74895;BME280;63447;49.446;8.666;2024-01-11T05:06:21;101527.16;;;-4.28;82.52
74895;BME280;63447;49.446;8.666;2024-01-11T05:08:49;101521.16;;;-4.30;82.92
74895;BME280;63447;49.446;8.666;2024-01-11T05:11:20;101519.69;;;-4.33;82.29
74895;BME280;63447;49.446;8.666;2024-01-11T05:13:46;101508.50;;;-4.43;83.43
74895;BME280;63447;49.446;8.666;2024-01-11T05:16:22;101523.22;;;-4.46;83.70
74895;BME280;63447;49.446;8.666;2024-01-11T05:18:50;101535.84;;;-4.53;83.23
74895;BME280;63447;49.446;8.666;2024-01-11T05:21:16;101522.78;;;-4.49;84.03
74895;BME280;63447;49.446;8.666;2024-01-11T05:23:42;101530.19;;;-4.64;84.58
74895;BME280;63447;49.446;8.666;2024-01-11T05:26:08;101535.38;;;-4.63;84.78
74895;BME280;63447;49.446;8.666;2024-01-11T05:28:33;101529.81;;;-4.55;84.48
74895;BME280;63447;49.446;8.666;2024-01-11T05:31:01;101505.56;;;-4.61;84.99
74895;BME280;63447;49.446;8.666;2024-01-11T05:33:29;101527.97;;;-4.54;83.92
74895;BME280;63447;49.446;8.666;2024-01-11T05:35:55;101512.41;;;-4.72;84.38
74895;BME280;63447;49.446;8.666;2024-01-11T05:38:21;101533.94;;;-4.59;85.22
74895;BME280;63447;49.446;8.666;2024-01-11T05:40:46;101497.03;;;-4.78;84.32
74895;BME280;63447;49.446;8.666;2024-01-11T05:43:11;101528.97;;;-4.62;84.02
74895;BME280;63447;49.446;8.666;2024-01-11T05:45:39;101550.50;;;-4.62;83.65
74895;BME280;63447;49.446;8.666;2024-01-11T05:48:05;101532.69;;;-4.69;84.45
74895;BME280;63447;49.446;8.666;2024-01-11T05:50:31;101555.09;;;-4.56;84.04
74895;BME280;63447;49.446;8.666;2024-01-11T05:52:59;101529.38;;;-4.71;84.58
74895;BME280;63447;49.446;8.666;2024-01-11T05:55:26;101545.09;;;-4.75;84.80
74895;BME280;63447;49.446;8.666;2024-01-11T05:57:54;101560.84;;;-4.65;85.25
74895;BME280;63447;49.446;8.666;2024-01-11T06:00:20;101558.78;;;-4.63;85.12
74895;BME280;63447;49.446;8.666;2024-01-11T06:02:45;101555.91;;;-4.55;84.89
74895;BME280;63447;49.446;8.666;2024-01-11T06:05:13;101548.88;;;-4.56;84.88
74895;BME280;63447;49.446;8.666;2024-01-11T06:07:38;101549.50;;;-4.54;85.00
74895;BME280;63447;49.446;8.666;2024-01-11T06:10:07;101538.31;;;-4.58;84.59
74895;BME280;63447;49.446;8.666;2024-01-11T06:12:33;101553.44;;;-4.50;84.15
74895;BME280;63447;49.446;8.666;2024-01-11T06:15:02;101554.47;;;-4.58;83.84
74895;BME280;63447;49.446;8.666;2024-01-11T06:17:27;101542.84;;;-4.65;84.67
74895;BME280;63447;49.446;8.666;2024-01-11T06:19:55;101557.75;;;-4.69;83.87
74895;BME280;63447;49.446;8.666;2024-01-11T06:22:21;101555.84;;;-4.82;85.06
74895;BME280;63447;49.446;8.666;2024-01-11T06:24:46;101547.97;;;-4.83;85.08
74895;BME280;63447;49.446;8.666;2024-01-11T06:27:12;101564.78;;;-4.74;86.10
74895;BME280;63447;49.446;8.666;2024-01-11T06:29:37;101555.88;;;-4.75;84.87
74895;BME280;63447;49.446;8.666;2024-01-11T06:32:03;101560.03;;;-4.66;86.04
74895;BME280;63447;49.446;8.666;2024-01-11T06:34:28;101562.13;;;-4.61;86.06
74895;BME280;63447;49.446;8.666;2024-01-11T06:36:54;101573.94;;;-4.56;85.34
74895;BME280;63447;49.446;8.666;2024-01-11T06:39:20;101580.56;;;-4.58;84.71
74895;BME280;63447;49.446;8.666;2024-01-11T06:41:45;101578.69;;;-4.58;85.43
74895;BME280;63447;49.446;8.666;2024-01-11T06:44:11;101579.53;;;-4.57;85.12
74895;BME280;63447;49.446;8.666;2024-01-11T06:46:36;101590.09;;;-4.56;84.85
74895;BME280;63447;49.446;8.666;2024-01-11T06:49:04;101592.78;;;-4.56;85.00
74895;BME280;63447;49.446;8.666;2024-01-11T06:51:29;101560.03;;;-4.72;84.96
74895;BME280;63447;49.446;8.666;2024-01-11T06:53:58;101594.88;;;-4.51;83.97
74895;BME280;63447;49.446;8.666;2024-01-11T06:56:25;101568.53;;;-4.69;84.58
74895;BME280;63447;49.446;8.666;2024-01-11T06:58:50;101602.38;;;-4.33;88.31
74895;BME280;63447;49.446;8.666;2024-01-11T07:01:18;101577.06;;;-4.52;87.55
74895;BME280;63447;49.446;8.666;2024-01-11T07:03:44;101606.91;;;-4.40;86.23
74895;BME280;63447;49.446;8.666;2024-01-11T07:06:09;101613.94;;;-4.53;84.56
74895;BME280;63447;49.446;8.666;2024-01-11T07:08:35;101587.47;;;-4.90;84.67
74895;BME280;63447;49.446;8.666;2024-01-11T07:11:01;101626.66;;;-4.81;85.85
74895;BME280;63447;49.446;8.666;2024-01-11T07:13:30;101630.75;;;-4.92;84.91
74895;BME280;63447;49.446;8.666;2024-01-11T07:16:00;101611.16;;;-5.20;86.78
74895;BME280;63447;49.446;8.666;2024-01-11T07:18:28;101636.75;;;-4.96;87.44
74895;BME280;63447;49.446;8.666;2024-01-11T07:20:56;101645.47;;;-4.88;87.20
74895;BME280;63447;49.446;8.666;2024-01-11T07:23:24;101644.47;;;-4.80;86.67
74895;BME280;63447;49.446;8.666;2024-01-11T07:25:50;101642.25;;;-4.70;86.19
74895;BME280;63447;49.446;8.666;2024-01-11T07:28:15;101629.13;;;-4.86;84.74
74895;BME280;63447;49.446;8.666;2024-01-11T07:30:42;101626.22;;;-4.85;85.82
74895;BME280;63447;49.446;8.666;2024-01-11T07:33:07;101652.41;;;-4.72;83.76
74895;BME280;63447;49.446;8.666;2024-01-11T07:35:34;101650.94;;;-4.74;85.61
74895;BME280;63447;49.446;8.666;2024-01-11T07:37:59;101637.47;;;-4.74;85.19
74895;BME280;63447;49.446;8.666;2024-01-11T07:40:28;101654.91;;;-4.64;84.49
74895;BME280;63447;49.446;8.666;2024-01-11T07:42:56;101660.72;;;-4.60;84.56
74895;BME280;63447;49.446;8.666;2024-01-11T07:45:21;101633.75;;;-4.67;83.17
74895;BME280;63447;49.446;8.666;2024-01-11T07:47:47;101653.66;;;-4.61;84.13
74895;BME280;63447;49.446;8.666;2024-01-11T07:50:15;101658.25;;;-4.55;83.63
74895;BME280;63447;49.446;8.666;2024-01-11T07:52:41;101651.25;;;-4.50;83.66
74895;BME280;63447;49.446;8.666;2024-01-11T07:55:07;101615.53;;;-4.71;83.26
74895;BME280;63447;49.446;8.666;2024-01-11T07:57:33;101654.78;;;-4.42;83.33
74895;BME280;63447;49.446;8.666;2024-01-11T07:59:59;101659.16;;;-4.35;83.09
74895;BME280;63447;49.446;8.666;2024-01-11T08:02:27;101661.63;;;-4.47;82.47
74895;BME280;63447;49.446;8.666;2024-01-11T08:04:52;101665.38;;;-4.34;82.81
74895;BME280;63447;49.446;8.666;2024-01-11T08:07:20;101661.66;;;-4.33;82.21
74895;BME280;63447;49.446;8.666;2024-01-11T08:09:47;101656.72;;;-4.23;82.45
74895;BME280;63447;49.446;8.666;2024-01-11T08:12:17;101676.19;;;-4.28;82.34
74895;BME280;63447;49.446;8.666;2024-01-11T08:14:45;101652.72;;;-4.34;82.53
74895;BME280;63447;49.446;8.666;2024-01-11T08:17:14;101667.09;;;-4.14;82.59
74895;BME280;63447;49.446;8.666;2024-01-11T08:19:42;101652.78;;;-4.21;82.16
74895;BME280;63447;49.446;8.666;2024-01-11T08:22:10;101660.47;;;-4.04;82.31
74895;BME280;63447;49.446;8.666;2024-01-11T08:24:36;101672.28;;;-4.05;81.66
74895;BME280;63447;49.446;8.666;2024-01-11T08:27:02;101672.94;;;-4.03;81.99
74895;BME280;63447;49.446;8.666;2024-01-11T08:29:27;101672.13;;;-3.97;81.91
74895;BME280;63447;49.446;8.666;2024-01-11T08:31:53;101677.09;;;-3.88;82.02
74895;BME280;63447;49.446;8.666;2024-01-11T08:34:21;101674.44;;;-3.74;81.01
74895;BME280;63447;49.446;8.666;2024-01-11T08:36:51;101684.41;;;-3.22;80.92
74895;BME280;63447;49.446;8.666;2024-01-11T08:39:17;101691.50;;;-2.57;78.29
74895;BME280;63447;49.446;8.666;2024-01-11T08:41:42;101670.16;;;-2.20;76.54
74895;BME280;63447;49.446;8.666;2024-01-11T08:44:09;101685.84;;;-1.66;74.64
74895;BME280;63447;49.446;8.666;2024-01-11T08:46:37;101692.00;;;-1.52;72.85
74895;BME280;63447;49.446;8.666;2024-01-11T08:49:03;101698.00;;;-1.00;72.16
74895;BME280;63447;49.446;8.666;2024-01-11T08:51:31;101677.25;;;-0.70;69.93
74895;BME280;63447;49.446;8.666;2024-01-11T08:53:57;101694.88;;;-0.43;67.76
74895;BME280;63447;49.446;8.666;2024-01-11T08:56:23;101692.91;;;-0.17;68.08
74895;BME280;63447;49.446;8.666;2024-01-11T08:58:48;101690.13;;;0.01;66.92
74895;BME280;63447;49.446;8.666;2024-01-11T09:01:14;101693.88;;;0.18;65.18
74895;BME280;63447;49.446;8.666;2024-01-11T09:03:40;101698.34;;;0.13;64.79
74895;BME280;63447;49.446;8.666;2024-01-11T09:06:08;101677.38;;;-0.10;65.64
74895;BME280;63447;49.446;8.666;2024-01-11T09:08:33;101678.28;;;-0.16;66.95
74895;BME280;63447;49.446;8.666;2024-01-11T09:10:59;101692.16;;;-0.24;65.99
74895;BME280;63447;49.446;8.666;2024-01-11T09:13:25;101681.97;;;0.19;64.78
74895;BME280;63447;49.446;8.666;2024-01-11T09:15:51;101675.41;;;0.39;62.48
74895;BME280;63447;49.446;8.666;2024-01-11T09:18:17;101689.50;;;0.82;66.18
74895;BME280;63447;49.446;8.666;2024-01-11T09:20:43;101690.69;;;1.33;71.33
74895;BME280;63447;49.446;8.666;2024-01-11T09:23:08;101685.06;;;1.75;69.24
74895;BME280;63447;49.446;8.666;2024-01-11T09:25:34;101693.13;;;2.26;65.53
74895;BME280;63447;49.446;8.666;2024-01-11T09:28:02;101691.59;;;2.47;60.36
74895;BME280;63447;49.446;8.666;2024-01-11T09:30:28;101671.19;;;2.33;55.74
74895;BME280;63447;49.446;8.666;2024-01-11T09:32:54;101682.00;;;2.45;56.66
74895;BME280;63447;49.446;8.666;2024-01-11T09:35:22;101676.00;;;2.59;57.31
74895;BME280;63447;49.446;8.666;2024-01-11T09:37:48;101702.88;;;2.39;56.46
74895;BME280;63447;49.446;8.666;2024-01-11T09:40:13;101700.09;;;2.67;60.32
74895;BME280;63447;49.446;8.666;2024-01-11T09:42:39;101691.63;;;3.36;56.62
74895;BME280;63447;49.446;8.666;2024-01-11T09:45:14;101700.00;;;3.95;53.04
74895;BME280;63447;49.446;8.666;2024-01-11T09:47:49;101703.91;;;4.85;50.48
74895;BME280;63447;49.446;8.666;2024-01-11T09:50:16;101700.72;;;4.93;48.48
74895;BME280;63447;49.446;8.666;2024-01-11T09:52:49;101708.19;;;5.07;49.26
74895;BME280;63447;49.446;8.666;2024-01-11T09:55:18;101689.97;;;5.80;46.58
74895;BME280;63447;49.446;8.666;2024-01-11T09:57:47;101726.06;;;6.30;45.30
74895;BME280;63447;49.446;8.666;2024-01-11T10:00:16;101727.03;;;5.98;45.51
74895;BME280;63447;49.446;8.666;2024-01-11T10:02:41;101709.00;;;6.02;45.36
74895;BME280;63447;49.446;8.666;2024-01-11T10:05:07;101723.84;;;6.27;44.17
74895;BME280;63447;49.446;8.666;2024-01-11T10:07:34;101742.72;;;5.56;46.29
74895;BME280;63447;49.446;8.666;2024-01-11T10:09:59;101740.56;;;6.25;44.58
74895;BME280;63447;49.446;8.666;2024-01-11T10:12:26;101743.94;;;6.47;45.75
74895;BME280;63447;49.446;8.666;2024-01-11T10:14:52;101736.28;;;7.26;44.00
74895;BME280;63447;49.446;8.666;2024-01-11T10:17:18;101738.44;;;8.24;40.74
74895;BME280;63447;49.446;8.666;2024-01-11T10:19:46;101711.78;;;8.68;38.37
74895;BME280;63447;49.446;8.666;2024-01-11T10:22:15;101716.66;;;9.39;36.89
74895;BME280;63447;49.446;8.666;2024-01-11T10:24:43;101731.25;;;9.87;36.50
74895;BME280;63447;49.446;8.666;2024-01-11T10:27:09;101712.22;;;9.67;36.18
74895;BME280;63447;49.446;8.666;2024-01-11T10:29:35;101691.31;;;10.09;36.14
74895;BME280;63447;49.446;8.666;2024-01-11T10:32:06;101702.16;;;10.62;35.42
74895;BME280;63447;49.446;8.666;2024-01-11T10:34:32;101685.81;;;10.46;35.22
74895;BME280;63447;49.446;8.666;2024-01-11T10:36:58;101682.31;;;10.92;34.31
74895;BME280;63447;49.446;8.666;2024-01-11T10:39:25;101692.75;;;10.63;34.60
74895;BME280;63447;49.446;8.666;2024-01-11T10:41:52;101689.75;;;10.78;33.90
74895;BME280;63447;49.446;8.666;2024-01-11T10:44:21;101692.53;;;10.40;34.52
74895;BME280;63447;49.446;8.666;2024-01-11T10:46:48;101683.88;;;10.98;33.34
74895;BME280;63447;49.446;8.666;2024-01-11T10:49:18;101690.94;;;11.37;33.89
74895;BME280;63447;49.446;8.666;2024-01-11T10:51:49;101709.78;;;12.17;31.34
74895;BME280;63447;49.446;8.666;2024-01-11T10:54:20;101702.66;;;11.15;34.03
74895;BME280;63447;49.446;8.666;2024-01-11T10:56:46;101719.72;;;11.63;33.29
74895;BME280;63447;49.446;8.666;2024-01-11T10:59:12;101716.97;;;12.18;31.43
74895;BME280;63447;49.446;8.666;2024-01-11T11:01:40;101674.03;;;12.20;31.14
74895;BME280;63447;49.446;8.666;2024-01-11T11:04:07;101706.66;;;12.46;31.99
74895;BME280;63447;49.446;8.666;2024-01-11T11:06:34;101686.94;;;12.11;31.05
74895;BME280;63447;49.446;8.666;2024-01-11T11:09:04;101683.22;;;10.55;32.76
74895;BME280;63447;49.446;8.666;2024-01-11T11:11:33;101689.41;;;11.99;32.78
74895;BME280;63447;49.446;8.666;2024-01-11T11:14:00;101694.50;;;13.00;30.73
74895;BME280;63447;49.446;8.666;2024-01-11T11:16:26;101677.59;;;13.33;29.91
74895;BME280;63447;49.446;8.666;2024-01-11T11:18:54;101683.28;;;13.05;31.36
74895;BME280;63447;49.446;8.666;2024-01-11T11:21:20;101687.69;;;13.29;30.03
74895;BME280;63447;49.446;8.666;2024-01-11T11:23:46;101690.91;;;13.92;28.46
74895;BME280;63447;49.446;8.666;2024-01-11T11:26:16;101683.81;;;13.69;29.57
74895;BME280;63447;49.446;8.666;2024-01-11T11:28:42;101672.50;;;14.83;27.78
74895;BME280;63447;49.446;8.666;2024-01-11T11:31:10;101653.38;;;14.90;26.96
74895;BME280;63447;49.446;8.666;2024-01-11T11:33:36;101633.94;;;14.30;30.40
74895;BME280;63447;49.446;8.666;2024-01-11T11:36:02;101640.94;;;15.51;28.14
74895;BME280;63447;49.446;8.666;2024-01-11T11:38:31;101658.16;;;14.72;27.50
74895;BME280;63447;49.446;8.666;2024-01-11T11:40:58;101657.63;;;15.43;26.04
74895;BME280;63447;49.446;8.666;2024-01-11T11:43:26;101650.44;;;14.95;26.47
74895;BME280;63447;49.446;8.666;2024-01-11T11:45:52;101654.81;;;15.60;25.90
74895;BME280;63447;49.446;8.666;2024-01-11T11:51:14;101645.25;;;15.99;26.11
74895;BME280;63447;49.446;8.666;2024-01-11T11:53:42;101649.22;;;15.22;25.90
74895;BME280;63447;49.446;8.666;2024-01-11T11:56:09;101648.84;;;15.79;25.35
74895;BME280;63447;49.446;8.666;2024-01-11T11:58:39;101642.41;;;15.49;25.04
74895;BME280;63447;49.446;8.666;2024-01-11T12:01:04;101614.19;;;13.97;27.87
74895;BME280;63447;49.446;8.666;2024-01-11T12:05:58;101621.41;;;14.41;27.20
74895;BME280;63447;49.446;8.666;2024-01-11T12:08:23;101640.97;;;14.96;27.03
74895;BME280;63447;49.446;8.666;2024-01-11T12:10:50;101629.28;;;15.20;26.83
74895;BME280;63447;49.446;8.666;2024-01-11T12:13:16;101626.31;;;15.63;25.54
74895;BME280;63447;49.446;8.666;2024-01-11T12:15:41;101630.00;;;15.38;26.67
74895;BME280;63447;49.446;8.666;2024-01-11T12:18:07;101635.97;;;15.27;27.52
74895;BME280;63447;49.446;8.666;2024-01-11T12:20:34;101644.88;;;15.42;26.23
74895;BME280;63447;49.446;8.666;2024-01-11T12:23:02;101625.47;;;15.71;25.92
74895;BME280;63447;49.446;8.666;2024-01-11T12:25:31;101624.69;;;16.12;24.43
74895;BME280;63447;49.446;8.666;2024-01-11T12:27:56;101628.75;;;15.94;24.48
74895;BME280;63447;49.446;8.666;2024-01-11T12:30:30;101636.19;;;16.11;24.27
74895;BME280;63447;49.446;8.666;2024-01-11T12:32:56;101638.28;;;15.55;24.44
74895;BME280;63447;49.446;8.666;2024-01-11T12:35:24;101628.59;;;14.59;26.84
74895;BME280;63447;49.446;8.666;2024-01-11T12:37:58;101627.31;;;15.20;25.82
74895;BME280;63447;49.446;8.666;2024-01-11T12:40:23;101618.66;;;15.51;24.84
74895;BME280;63447;49.446;8.666;2024-01-11T12:42:48;101615.44;;;15.79;24.69
74895;BME280;63447;49.446;8.666;2024-01-11T12:45:16;101587.06;;;15.26;25.41
74895;BME280;63447;49.446;8.666;2024-01-11T12:47:41;101605.16;;;15.71;25.02
74895;BME280;63447;49.446;8.666;2024-01-11T12:50:09;101601.22;;;15.72;25.28
74895;BME280;63447;49.446;8.666;2024-01-11T12:52:37;101582.66;;;14.62;26.41